sensor_id;sensor_type;location;lat;lon;timestamp;temperature;humidity
52034;DHT22;38045;52.988;6.536;2023-07-29T00:01:50;18.60;99.90
52034;DHT22;38045;52.988;6.536;2023-07-29T00:04:16;18.60;99.90
52034;DHT22;38045;52.988;6.536;2023-07-29T00:06:42;18.60;99.90
52034;DHT22;38045;52.988;6.536;2023-07-29T00:09:08;18.60;99.90
52034;DHT22;38045;52.988;6.536;2023-07-29T00:11:33;18.60;99.90
52034;DHT22;38045;52.988;6.536;2023-07-29T00:14:01;18.60;99.90
52034;DHT22;38045;52.988;6.536;2023-07-29T00:16:27;18.60;99.90
52034;DHT22;38045;52.988;6.536;2023-07-29T00:18:52;18.60;99.90
52034;DHT22;38045;52.988;6.536;2023-07-29T00:21:18;18.60;99.90
52034;DHT22;38045;52.988;6.536;2023-07-29T00:23:44;18.60;99.90
52034;DHT22;38045;52.988;6.536;2023-07-29T00:26:10;18.60;99.90
52034;DHT22;38045;52.988;6.536;2023-07-29T00:28:35;18.50;99.90
52034;DHT22;38045;52.988;6.536;2023-07-29T00:31:02;18.50;99.90
52034;DHT22;38045;52.988;6.536;2023-07-29T00:33:27;18.50;99.90
52034;DHT22;38045;52.988;6.536;2023-07-29T00:35:53;18.50;99.90
52034;DHT22;38045;52.988;6.536;2023-07-29T00:38:19;18.40;99.90
52034;DHT22;38045;52.988;6.536;2023-07-29T00:40:45;18.40;99.90
52034;DHT22;38045;52.988;6.536;2023-07-29T00:43:10;18.30;99.90
52034;DHT22;38045;52.988;6.536;2023-07-29T00:45:36;18.30;99.90
52034;DHT22;38045;52.988;6.536;2023-07-29T00:48:02;18.30;99.90
52034;DHT22;38045;52.988;6.536;2023-07-29T00:50:30;18.20;99.90
52034;DHT22;38045;52.988;6.536;2023-07-29T00:52:56;18.20;99.90
52034;DHT22;38045;52.988;6.536;2023-07-29T00:55:22;18.10;99.90
52034;DHT22;38045;52.988;6.536;2023-07-29T00:57:48;18.10;99.90
52034;DHT22;38045;52.988;6.536;2023-07-29T01:00:17;18.10;99.90
52034;DHT22;38045;52.988;6.536;2023-07-29T01:02:43;18.10;99.90
52034;DHT22;38045;52.988;6.536;2023-07-29T01:05:11;18.00;99.90
52034;DHT22;38045;52.988;6.536;2023-07-29T01:07:51;18.00;99.90
52034;DHT22;38045;52.988;6.536;2023-07-29T01:12:57;17.90;99.90
52034;DHT22;38045;52.988;6.536;2023-07-29T01:15:36;17.90;99.90
52034;DHT22;38045;52.988;6.536;2023-07-29T01:18:05;17.90;99.90
52034;DHT22;38045;52.988;6.536;2023-07-29T01:20:33;17.80;99.90
52034;DHT22;38045;52.988;6.536;2023-07-29T01:22:59;17.80;99.90
52034;DHT22;38045;52.988;6.536;2023-07-29T01:25:25;17.80;99.90
52034;DHT22;38045;52.988;6.536;2023-07-29T01:27:51;17.70;99.90
52034;DHT22;38045;52.988;6.536;2023-07-29T01:30:18;17.70;99.90
52034;DHT22;38045;52.988;6.536;2023-07-29T01:33:08;17.60;99.90
52034;DHT22;38045;52.988;6.536;2023-07-29T01:35:40;17.60;99.90
52034;DHT22;38045;52.988;6.536;2023-07-29T01:38:14;17.60;99.90
52034;DHT22;38045;52.988;6.536;2023-07-29T01:40:42;17.60;99.90
52034;DHT22;38045;52.988;6.536;2023-07-29T01:43:10;17.50;99.90
52034;DHT22;38045;52.988;6.536;2023-07-29T01:45:35;17.50;99.90
52034;DHT22;38045;52.988;6.536;2023-07-29T01:48:05;17.50;99.90
52034;DHT22;38045;52.988;6.536;2023-07-29T01:50:30;17.40;99.90
52034;DHT22;38045;52.988;6.536;2023-07-29T01:52:57;17.40;99.90
52034;DHT22;38045;52.988;6.536;2023-07-29T01:55:23;17.30;99.90
52034;DHT22;38045;52.988;6.536;2023-07-29T01:57:49;17.30;99.90
52034;DHT22;38045;52.988;6.536;2023-07-29T02:00:15;17.30;99.90
52034;DHT22;38045;52.988;6.536;2023-07-29T02:02:41;17.30;99.90
52034;DHT22;38045;52.988;6.536;2023-07-29T02:05:06;17.30;99.90
52034;DHT22;38045;52.988;6.536;2023-07-29T02:07:32;17.30;99.90
52034;DHT22;38045;52.988;6.536;2023-07-29T02:09:58;17.20;99.90
52034;DHT22;38045;52.988;6.536;2023-07-29T02:12:24;17.20;99.90
52034;DHT22;38045;52.988;6.536;2023-07-29T02:14:49;17.20;99.90
52034;DHT22;38045;52.988;6.536;2023-07-29T02:17:15;17.20;99.90
52034;DHT22;38045;52.988;6.536;2023-07-29T02:19:41;17.30;99.90
52034;DHT22;38045;52.988;6.536;2023-07-29T02:22:06;17.20;99.90
52034;DHT22;38045;52.988;6.536;2023-07-29T02:24:32;17.20;99.90
52034;DHT22;38045;52.988;6.536;2023-07-29T02:26:58;17.20;99.90
52034;DHT22;38045;52.988;6.536;2023-07-29T02:29:23;17.20;99.90
52034;DHT22;38045;52.988;6.536;2023-07-29T02:31:50;17.20;99.90
52034;DHT22;38045;52.988;6.536;2023-07-29T02:34:16;17.20;99.90
52034;DHT22;38045;52.988;6.536;2023-07-29T02:36:42;17.20;99.90
52034;DHT22;38045;52.988;6.536;2023-07-29T02:39:07;17.10;99.90
52034;DHT22;38045;52.988;6.536;2023-07-29T02:41:33;17.10;99.90
52034;DHT22;38045;52.988;6.536;2023-07-29T02:43:59;17.10;99.90
52034;DHT22;38045;52.988;6.536;2023-07-29T02:46:24;17.10;99.90
52034;DHT22;38045;52.988;6.536;2023-07-29T02:48:50;17.10;99.90
52034;DHT22;38045;52.988;6.536;2023-07-29T02:51:16;17.10;99.90
52034;DHT22;38045;52.988;6.536;2023-07-29T02:53:42;17.10;99.90
52034;DHT22;38045;52.988;6.536;2023-07-29T02:56:08;17.10;99.90
52034;DHT22;38045;52.988;6.536;2023-07-29T02:58:36;17.10;99.90
52034;DHT22;38045;52.988;6.536;2023-07-29T03:01:03;17.10;99.90
52034;DHT22;38045;52.988;6.536;2023-07-29T03:03:29;17.00;99.90
52034;DHT22;38045;52.988;6.536;2023-07-29T03:06:05;17.00;99.90
52034;DHT22;38045;52.988;6.536;2023-07-29T03:08:32;17.00;99.90
52034;DHT22;38045;52.988;6.536;2023-07-29T03:10:58;17.00;99.90
52034;DHT22;38045;52.988;6.536;2023-07-29T03:13:24;17.00;99.90
52034;DHT22;38045;52.988;6.536;2023-07-29T03:15:50;17.00;99.90
52034;DHT22;38045;52.988;6.536;2023-07-29T03:18:16;17.00;99.90
52034;DHT22;38045;52.988;6.536;2023-07-29T03:20:42;17.00;99.90
52034;DHT22;38045;52.988;6.536;2023-07-29T03:23:07;17.00;99.90
52034;DHT22;38045;52.988;6.536;2023-07-29T03:25:33;17.00;99.90
52034;DHT22;38045;52.988;6.536;2023-07-29T03:27:59;17.00;99.90
52034;DHT22;38045;52.988;6.536;2023-07-29T03:30:24;16.90;99.90
52034;DHT22;38045;52.988;6.536;2023-07-29T03:32:50;16.90;99.90
52034;DHT22;38045;52.988;6.536;2023-07-29T03:35:16;16.90;99.90
52034;DHT22;38045;52.988;6.536;2023-07-29T03:37:42;16.90;99.90
52034;DHT22;38045;52.988;6.536;2023-07-29T03:40:08;16.90;99.90
52034;DHT22;38045;52.988;6.536;2023-07-29T03:42:35;16.90;99.90
52034;DHT22;38045;52.988;6.536;2023-07-29T03:45:01;16.90;99.90
52034;DHT22;38045;52.988;6.536;2023-07-29T03:47:27;16.90;99.90
52034;DHT22;38045;52.988;6.536;2023-07-29T03:49:53;16.80;99.90
52034;DHT22;38045;52.988;6.536;2023-07-29T03:52:18;16.90;99.90
52034;DHT22;38045;52.988;6.536;2023-07-29T03:54:44;16.80;99.90
52034;DHT22;38045;52.988;6.536;2023-07-29T03:57:09;16.80;99.90
52034;DHT22;38045;52.988;6.536;2023-07-29T03:59:35;16.80;99.90
52034;DHT22;38045;52.988;6.536;2023-07-29T04:02:01;16.80;99.90
52034;DHT22;38045;52.988;6.536;2023-07-29T04:04:26;16.70;99.90
52034;DHT22;38045;52.988;6.536;2023-07-29T04:06:52;16.70;99.90
52034;DHT22;38045;52.988;6.536;2023-07-29T04:09:17;16.70;99.90
52034;DHT22;38045;52.988;6.536;2023-07-29T04:11:43;16.70;99.90
52034;DHT22;38045;52.988;6.536;2023-07-29T04:14:09;16.70;99.90
52034;DHT22;38045;52.988;6.536;2023-07-29T04:16:34;16.70;99.90
52034;DHT22;38045;52.988;6.536;2023-07-29T04:19:00;16.80;99.90
52034;DHT22;38045;52.988;6.536;2023-07-29T04:21:26;16.70;99.90
52034;DHT22;38045;52.988;6.536;2023-07-29T04:23:51;16.70;99.90
52034;DHT22;38045;52.988;6.536;2023-07-29T04:26:17;16.70;99.90
52034;DHT22;38045;52.988;6.536;2023-07-29T04:28:43;16.70;99.90
52034;DHT22;38045;52.988;6.536;2023-07-29T04:31:09;16.70;99.90
52034;DHT22;38045;52.988;6.536;2023-07-29T04:33:34;16.80;99.90
52034;DHT22;38045;52.988;6.536;2023-07-29T04:36:00;16.80;99.90
52034;DHT22;38045;52.988;6.536;2023-07-29T04:38:31;16.80;99.90
52034;DHT22;38045;52.988;6.536;2023-07-29T04:40:58;16.80;99.90
52034;DHT22;38045;52.988;6.536;2023-07-29T04:43:27;16.80;99.90
52034;DHT22;38045;52.988;6.536;2023-07-29T04:45:53;16.90;99.90
52034;DHT22;38045;52.988;6.536;2023-07-29T04:48:19;16.90;99.90
52034;DHT22;38045;52.988;6.536;2023-07-29T04:50:45;16.80;99.90
52034;DHT22;38045;52.988;6.536;2023-07-29T04:53:10;16.90;99.90
52034;DHT22;38045;52.988;6.536;2023-07-29T04:55:36;16.90;99.90
52034;DHT22;38045;52.988;6.536;2023-07-29T04:58:02;16.90;99.90
52034;DHT22;38045;52.988;6.536;2023-07-29T05:00:27;16.90;99.90
52034;DHT22;38045;52.988;6.536;2023-07-29T05:02:53;16.80;99.90
52034;DHT22;38045;52.988;6.536;2023-07-29T05:05:18;16.80;99.90
52034;DHT22;38045;52.988;6.536;2023-07-29T05:07:44;16.80;99.90
52034;DHT22;38045;52.988;6.536;2023-07-29T05:10:10;16.80;99.90
52034;DHT22;38045;52.988;6.536;2023-07-29T05:12:36;16.90;99.90
52034;DHT22;38045;52.988;6.536;2023-07-29T05:15:02;16.90;99.90
52034;DHT22;38045;52.988;6.536;2023-07-29T05:17:28;16.90;99.90
52034;DHT22;38045;52.988;6.536;2023-07-29T05:19:53;16.80;99.90
52034;DHT22;38045;52.988;6.536;2023-07-29T05:22:19;16.90;99.90
52034;DHT22;38045;52.988;6.536;2023-07-29T05:24:45;16.90;99.90
52034;DHT22;38045;52.988;6.536;2023-07-29T05:27:10;16.90;99.90
52034;DHT22;38045;52.988;6.536;2023-07-29T05:29:36;16.80;99.90
52034;DHT22;38045;52.988;6.536;2023-07-29T05:32:02;16.90;99.90
52034;DHT22;38045;52.988;6.536;2023-07-29T05:34:27;16.90;99.90
52034;DHT22;38045;52.988;6.536;2023-07-29T05:36:53;16.90;99.90
52034;DHT22;38045;52.988;6.536;2023-07-29T05:39:18;17.00;99.90
52034;DHT22;38045;52.988;6.536;2023-07-29T05:41:44;17.00;99.90
52034;DHT22;38045;52.988;6.536;2023-07-29T05:44:11;16.90;99.90
52034;DHT22;38045;52.988;6.536;2023-07-29T05:46:36;16.90;99.90
52034;DHT22;38045;52.988;6.536;2023-07-29T05:49:02;16.90;99.90
52034;DHT22;38045;52.988;6.536;2023-07-29T05:51:28;17.00;99.90
52034;DHT22;38045;52.988;6.536;2023-07-29T05:53:53;17.00;99.90
52034;DHT22;38045;52.988;6.536;2023-07-29T05:56:19;17.00;99.90
52034;DHT22;38045;52.988;6.536;2023-07-29T05:58:44;17.00;99.90
52034;DHT22;38045;52.988;6.536;2023-07-29T06:01:10;17.10;99.90
52034;DHT22;38045;52.988;6.536;2023-07-29T06:03:36;17.10;99.90
52034;DHT22;38045;52.988;6.536;2023-07-29T06:06:01;17.00;99.90
52034;DHT22;38045;52.988;6.536;2023-07-29T06:08:27;17.10;99.90
52034;DHT22;38045;52.988;6.536;2023-07-29T06:10:54;17.10;99.90
52034;DHT22;38045;52.988;6.536;2023-07-29T06:13:20;17.10;99.90
52034;DHT22;38045;52.988;6.536;2023-07-29T06:15:45;17.10;99.90
52034;DHT22;38045;52.988;6.536;2023-07-29T06:18:11;17.20;99.90
52034;DHT22;38045;52.988;6.536;2023-07-29T06:20:37;17.20;99.90
52034;DHT22;38045;52.988;6.536;2023-07-29T06:23:03;17.20;99.90
52034;DHT22;38045;52.988;6.536;2023-07-29T06:25:28;17.30;99.90
52034;DHT22;38045;52.988;6.536;2023-07-29T06:27:54;17.30;99.90
52034;DHT22;38045;52.988;6.536;2023-07-29T06:30:19;17.40;99.90
52034;DHT22;38045;52.988;6.536;2023-07-29T06:32:45;17.60;99.90
52034;DHT22;38045;52.988;6.536;2023-07-29T06:35:11;17.70;99.90
52034;DHT22;38045;52.988;6.536;2023-07-29T06:37:36;17.90;99.90
52034;DHT22;38045;52.988;6.536;2023-07-29T06:40:02;18.00;99.90
52034;DHT22;38045;52.988;6.536;2023-07-29T06:42:28;18.10;99.90
52034;DHT22;38045;52.988;6.536;2023-07-29T06:44:54;18.20;99.90
52034;DHT22;38045;52.988;6.536;2023-07-29T06:47:19;18.30;99.90
52034;DHT22;38045;52.988;6.536;2023-07-29T06:49:46;18.20;99.90
52034;DHT22;38045;52.988;6.536;2023-07-29T06:52:11;18.20;99.90
52034;DHT22;38045;52.988;6.536;2023-07-29T06:54:37;18.30;99.90
52034;DHT22;38045;52.988;6.536;2023-07-29T06:57:03;18.30;99.90
52034;DHT22;38045;52.988;6.536;2023-07-29T06:59:28;18.30;99.90
52034;DHT22;38045;52.988;6.536;2023-07-29T07:01:54;18.30;99.90
52034;DHT22;38045;52.988;6.536;2023-07-29T07:04:19;18.40;99.90
52034;DHT22;38045;52.988;6.536;2023-07-29T07:06:45;18.40;99.90
52034;DHT22;38045;52.988;6.536;2023-07-29T07:09:11;18.30;99.90
52034;DHT22;38045;52.988;6.536;2023-07-29T07:11:37;18.40;99.90
52034;DHT22;38045;52.988;6.536;2023-07-29T07:14:02;18.20;99.90
52034;DHT22;38045;52.988;6.536;2023-07-29T07:16:28;18.40;99.90
52034;DHT22;38045;52.988;6.536;2023-07-29T07:18:56;18.40;99.90
52034;DHT22;38045;52.988;6.536;2023-07-29T07:21:21;18.50;99.90
52034;DHT22;38045;52.988;6.536;2023-07-29T07:23:49;18.50;99.90
52034;DHT22;38045;52.988;6.536;2023-07-29T07:26:15;18.60;99.90
52034;DHT22;38045;52.988;6.536;2023-07-29T07:28:40;18.60;99.90
52034;DHT22;38045;52.988;6.536;2023-07-29T07:31:06;18.60;99.90
52034;DHT22;38045;52.988;6.536;2023-07-29T07:33:32;18.60;99.90
52034;DHT22;38045;52.988;6.536;2023-07-29T07:35:57;18.60;99.90
52034;DHT22;38045;52.988;6.536;2023-07-29T07:38:23;18.80;99.90
52034;DHT22;38045;52.988;6.536;2023-07-29T07:40:53;18.80;99.90
52034;DHT22;38045;52.988;6.536;2023-07-29T07:43:20;18.80;99.90
52034;DHT22;38045;52.988;6.536;2023-07-29T07:45:46;18.90;99.90
52034;DHT22;38045;52.988;6.536;2023-07-29T07:48:11;19.00;99.90
52034;DHT22;38045;52.988;6.536;2023-07-29T07:50:38;19.10;99.90
52034;DHT22;38045;52.988;6.536;2023-07-29T07:53:04;19.10;99.90
52034;DHT22;38045;52.988;6.536;2023-07-29T07:55:30;19.10;99.90
52034;DHT22;38045;52.988;6.536;2023-07-29T07:57:55;19.20;99.90
52034;DHT22;38045;52.988;6.536;2023-07-29T08:00:21;19.20;99.90
52034;DHT22;38045;52.988;6.536;2023-07-29T08:02:47;19.20;99.90
52034;DHT22;38045;52.988;6.536;2023-07-29T08:05:12;19.20;99.90
52034;DHT22;38045;52.988;6.536;2023-07-29T08:07:38;19.30;99.90
52034;DHT22;38045;52.988;6.536;2023-07-29T08:10:04;19.30;99.90
52034;DHT22;38045;52.988;6.536;2023-07-29T08:12:30;19.30;99.90
52034;DHT22;38045;52.988;6.536;2023-07-29T08:14:55;19.40;99.90
52034;DHT22;38045;52.988;6.536;2023-07-29T08:17:21;19.40;99.90
52034;DHT22;38045;52.988;6.536;2023-07-29T08:19:47;19.40;99.90
52034;DHT22;38045;52.988;6.536;2023-07-29T08:22:12;19.40;99.90
52034;DHT22;38045;52.988;6.536;2023-07-29T08:24:38;19.40;99.90
52034;DHT22;38045;52.988;6.536;2023-07-29T08:27:04;19.40;99.90
52034;DHT22;38045;52.988;6.536;2023-07-29T08:29:29;19.50;99.90
52034;DHT22;38045;52.988;6.536;2023-07-29T08:31:55;19.50;99.90
52034;DHT22;38045;52.988;6.536;2023-07-29T08:34:21;19.60;99.90
52034;DHT22;38045;52.988;6.536;2023-07-29T08:36:46;19.80;99.90
52034;DHT22;38045;52.988;6.536;2023-07-29T08:39:12;20.00;99.90
52034;DHT22;38045;52.988;6.536;2023-07-29T08:41:45;20.10;99.90
52034;DHT22;38045;52.988;6.536;2023-07-29T08:44:26;20.20;99.90
52034;DHT22;38045;52.988;6.536;2023-07-29T08:46:52;20.00;99.90
52034;DHT22;38045;52.988;6.536;2023-07-29T08:49:19;19.90;99.90
52034;DHT22;38045;52.988;6.536;2023-07-29T08:51:49;19.80;99.90
52034;DHT22;38045;52.988;6.536;2023-07-29T08:54:15;19.70;99.90
52034;DHT22;38045;52.988;6.536;2023-07-29T08:56:42;19.80;99.90
52034;DHT22;38045;52.988;6.536;2023-07-29T08:59:09;19.90;99.90
52034;DHT22;38045;52.988;6.536;2023-07-29T09:01:36;20.00;99.90
52034;DHT22;38045;52.988;6.536;2023-07-29T09:04:02;20.20;99.90
52034;DHT22;38045;52.988;6.536;2023-07-29T09:06:28;20.30;99.90
52034;DHT22;38045;52.988;6.536;2023-07-29T09:08:54;20.40;99.90
52034;DHT22;38045;52.988;6.536;2023-07-29T09:11:22;20.50;99.90
52034;DHT22;38045;52.988;6.536;2023-07-29T09:13:48;20.60;99.90
52034;DHT22;38045;52.988;6.536;2023-07-29T09:16:14;20.80;99.90
52034;DHT22;38045;52.988;6.536;2023-07-29T09:18:40;20.70;99.90
52034;DHT22;38045;52.988;6.536;2023-07-29T09:21:06;20.70;99.90
52034;DHT22;38045;52.988;6.536;2023-07-29T09:23:42;20.70;99.90
52034;DHT22;38045;52.988;6.536;2023-07-29T09:26:08;20.70;99.90
52034;DHT22;38045;52.988;6.536;2023-07-29T09:28:35;20.90;99.90
52034;DHT22;38045;52.988;6.536;2023-07-29T09:31:01;20.90;99.90
52034;DHT22;38045;52.988;6.536;2023-07-29T09:33:27;21.00;99.90
52034;DHT22;38045;52.988;6.536;2023-07-29T09:35:53;20.90;99.90
52034;DHT22;38045;52.988;6.536;2023-07-29T09:38:26;20.90;99.90
52034;DHT22;38045;52.988;6.536;2023-07-29T09:40:55;20.90;99.90
52034;DHT22;38045;52.988;6.536;2023-07-29T09:43:25;20.90;99.90
52034;DHT22;38045;52.988;6.536;2023-07-29T09:45:52;20.90;99.90
52034;DHT22;38045;52.988;6.536;2023-07-29T09:48:22;20.90;99.90
52034;DHT22;38045;52.988;6.536;2023-07-29T09:50:48;20.90;99.90
52034;DHT22;38045;52.988;6.536;2023-07-29T09:53:14;21.00;99.90
52034;DHT22;38045;52.988;6.536;2023-07-29T09:55:40;21.10;99.90
52034;DHT22;38045;52.988;6.536;2023-07-29T09:58:11;21.30;99.90
52034;DHT22;38045;52.988;6.536;2023-07-29T10:00:37;21.50;99.90
52034;DHT22;38045;52.988;6.536;2023-07-29T10:03:04;21.60;99.90
52034;DHT22;38045;52.988;6.536;2023-07-29T10:05:30;21.60;99.90
52034;DHT22;38045;52.988;6.536;2023-07-29T10:07:56;21.70;99.90
52034;DHT22;38045;52.988;6.536;2023-07-29T10:10:22;21.80;99.90
52034;DHT22;38045;52.988;6.536;2023-07-29T10:12:49;21.80;99.90
52034;DHT22;38045;52.988;6.536;2023-07-29T10:15:15;21.80;99.90
52034;DHT22;38045;52.988;6.536;2023-07-29T10:17:41;21.80;99.90
52034;DHT22;38045;52.988;6.536;2023-07-29T10:20:09;21.90;99.90
52034;DHT22;38045;52.988;6.536;2023-07-29T10:25:08;21.70;99.90
52034;DHT22;38045;52.988;6.536;2023-07-29T10:30:11;21.80;99.90
52034;DHT22;38045;52.988;6.536;2023-07-29T10:32:41;21.80;99.90
52034;DHT22;38045;52.988;6.536;2023-07-29T10:35:08;21.80;99.90
52034;DHT22;38045;52.988;6.536;2023-07-29T10:37:34;21.70;99.90
52034;DHT22;38045;52.988;6.536;2023-07-29T10:40:00;21.60;99.90
52034;DHT22;38045;52.988;6.536;2023-07-29T10:42:25;21.60;99.90
52034;DHT22;38045;52.988;6.536;2023-07-29T10:44:54;21.60;99.90
52034;DHT22;38045;52.988;6.536;2023-07-29T10:47:22;21.50;99.90
52034;DHT22;38045;52.988;6.536;2023-07-29T10:49:57;21.60;99.90
52034;DHT22;38045;52.988;6.536;2023-07-29T10:55:01;21.70;99.90
52034;DHT22;38045;52.988;6.536;2023-07-29T10:59:58;21.30;99.90
52034;DHT22;38045;52.988;6.536;2023-07-29T11:02:31;21.10;99.90
52034;DHT22;38045;52.988;6.536;2023-07-29T11:04:57;20.80;99.90
52034;DHT22;38045;52.988;6.536;2023-07-29T11:07:27;20.80;99.90
52034;DHT22;38045;52.988;6.536;2023-07-29T11:12:50;20.70;99.90
52034;DHT22;38045;52.988;6.536;2023-07-29T11:15:26;20.60;99.90
52034;DHT22;38045;52.988;6.536;2023-07-29T11:17:56;20.60;99.90
52034;DHT22;38045;52.988;6.536;2023-07-29T11:20:30;20.50;99.90
52034;DHT22;38045;52.988;6.536;2023-07-29T11:22:58;20.60;99.90
52034;DHT22;38045;52.988;6.536;2023-07-29T11:25:27;20.70;99.90
52034;DHT22;38045;52.988;6.536;2023-07-29T11:27:55;20.60;99.90
52034;DHT22;38045;52.988;6.536;2023-07-29T11:30:21;20.80;99.90
52034;DHT22;38045;52.988;6.536;2023-07-29T11:32:48;21.20;99.90
52034;DHT22;38045;52.988;6.536;2023-07-29T11:35:16;21.50;99.90
52034;DHT22;38045;52.988;6.536;2023-07-29T11:37:46;21.60;99.90
52034;DHT22;38045;52.988;6.536;2023-07-29T11:40:17;21.50;99.90
52034;DHT22;38045;52.988;6.536;2023-07-29T11:42:45;21.50;99.90
52034;DHT22;38045;52.988;6.536;2023-07-29T11:45:11;21.40;99.90
52034;DHT22;38045;52.988;6.536;2023-07-29T11:47:37;21.60;99.90
52034;DHT22;38045;52.988;6.536;2023-07-29T11:50:13;21.60;99.90
52034;DHT22;38045;52.988;6.536;2023-07-29T11:52:44;21.60;99.90
52034;DHT22;38045;52.988;6.536;2023-07-29T11:55:11;21.50;99.90
52034;DHT22;38045;52.988;6.536;2023-07-29T11:57:38;21.40;99.90
52034;DHT22;38045;52.988;6.536;2023-07-29T12:00:09;21.40;99.90
52034;DHT22;38045;52.988;6.536;2023-07-29T12:02:39;21.50;99.90
52034;DHT22;38045;52.988;6.536;2023-07-29T12:05:06;21.50;99.90
52034;DHT22;38045;52.988;6.536;2023-07-29T12:07:33;21.50;99.90
52034;DHT22;38045;52.988;6.536;2023-07-29T12:09:59;21.60;99.90
52034;DHT22;38045;52.988;6.536;2023-07-29T12:12:25;21.50;99.90
52034;DHT22;38045;52.988;6.536;2023-07-29T12:14:54;21.50;99.90
52034;DHT22;38045;52.988;6.536;2023-07-29T12:17:20;21.60;99.90
52034;DHT22;38045;52.988;6.536;2023-07-29T12:19:46;22.00;99.90
52034;DHT22;38045;52.988;6.536;2023-07-29T12:22:11;22.30;99.90
52034;DHT22;38045;52.988;6.536;2023-07-29T12:24:40;22.30;99.90
52034;DHT22;38045;52.988;6.536;2023-07-29T12:27:11;22.20;99.90
52034;DHT22;38045;52.988;6.536;2023-07-29T12:29:40;22.30;99.90
52034;DHT22;38045;52.988;6.536;2023-07-29T12:32:07;22.30;99.90
52034;DHT22;38045;52.988;6.536;2023-07-29T12:34:33;22.30;99.90
52034;DHT22;38045;52.988;6.536;2023-07-29T12:36:59;22.30;99.90
52034;DHT22;38045;52.988;6.536;2023-07-29T12:39:29;22.50;99.90
52034;DHT22;38045;52.988;6.536;2023-07-29T12:41:56;22.70;99.90
52034;DHT22;38045;52.988;6.536;2023-07-29T12:44:23;22.90;99.90
52034;DHT22;38045;52.988;6.536;2023-07-29T12:46:49;23.20;99.90
52034;DHT22;38045;52.988;6.536;2023-07-29T12:49:15;23.40;99.90
52034;DHT22;38045;52.988;6.536;2023-07-29T12:51:41;23.50;99.90
52034;DHT22;38045;52.988;6.536;2023-07-29T12:54:07;23.30;99.90
52034;DHT22;38045;52.988;6.536;2023-07-29T12:56:33;23.10;99.90
52034;DHT22;38045;52.988;6.536;2023-07-29T12:58:59;23.00;99.90
52034;DHT22;38045;52.988;6.536;2023-07-29T13:01:26;23.00;99.90
52034;DHT22;38045;52.988;6.536;2023-07-29T13:03:52;23.10;99.90
52034;DHT22;38045;52.988;6.536;2023-07-29T13:06:18;23.20;99.90
52034;DHT22;38045;52.988;6.536;2023-07-29T13:08:44;23.30;99.90
52034;DHT22;38045;52.988;6.536;2023-07-29T13:11:10;23.10;99.90
52034;DHT22;38045;52.988;6.536;2023-07-29T13:13:36;22.80;99.90
52034;DHT22;38045;52.988;6.536;2023-07-29T13:16:02;22.60;99.90
52034;DHT22;38045;52.988;6.536;2023-07-29T13:18:28;22.50;99.90
52034;DHT22;38045;52.988;6.536;2023-07-29T13:20:54;22.60;99.90
52034;DHT22;38045;52.988;6.536;2023-07-29T13:23:20;22.70;99.90
52034;DHT22;38045;52.988;6.536;2023-07-29T13:25:46;22.80;99.90
52034;DHT22;38045;52.988;6.536;2023-07-29T13:28:12;22.80;99.90
52034;DHT22;38045;52.988;6.536;2023-07-29T13:30:41;22.90;99.90
52034;DHT22;38045;52.988;6.536;2023-07-29T13:33:07;23.20;99.90
52034;DHT22;38045;52.988;6.536;2023-07-29T13:35:33;23.30;99.90
52034;DHT22;38045;52.988;6.536;2023-07-29T13:37:58;23.40;99.90
52034;DHT22;38045;52.988;6.536;2023-07-29T13:40:24;23.40;99.90
52034;DHT22;38045;52.988;6.536;2023-07-29T13:42:50;23.50;99.90
52034;DHT22;38045;52.988;6.536;2023-07-29T13:45:15;23.50;99.90
52034;DHT22;38045;52.988;6.536;2023-07-29T13:47:41;23.40;99.90
52034;DHT22;38045;52.988;6.536;2023-07-29T13:50:07;23.20;99.90
52034;DHT22;38045;52.988;6.536;2023-07-29T13:52:33;23.10;99.90
52034;DHT22;38045;52.988;6.536;2023-07-29T13:54:59;22.90;99.90
52034;DHT22;38045;52.988;6.536;2023-07-29T13:57:25;22.80;99.90
52034;DHT22;38045;52.988;6.536;2023-07-29T13:59:50;22.80;99.90
52034;DHT22;38045;52.988;6.536;2023-07-29T14:02:16;23.00;99.90
52034;DHT22;38045;52.988;6.536;2023-07-29T14:04:42;23.30;99.90
52034;DHT22;38045;52.988;6.536;2023-07-29T14:07:07;23.50;99.90
52034;DHT22;38045;52.988;6.536;2023-07-29T14:09:33;23.60;99.90
52034;DHT22;38045;52.988;6.536;2023-07-29T14:11:58;23.70;99.90
52034;DHT22;38045;52.988;6.536;2023-07-29T14:14:24;23.50;99.90
52034;DHT22;38045;52.988;6.536;2023-07-29T14:16:50;23.40;99.90
52034;DHT22;38045;52.988;6.536;2023-07-29T14:19:15;23.30;99.90
52034;DHT22;38045;52.988;6.536;2023-07-29T14:21:41;23.20;99.90
52034;DHT22;38045;52.988;6.536;2023-07-29T14:24:06;23.20;99.90
52034;DHT22;38045;52.988;6.536;2023-07-29T14:26:32;23.00;99.90
52034;DHT22;38045;52.988;6.536;2023-07-29T14:28:58;22.90;99.90
52034;DHT22;38045;52.988;6.536;2023-07-29T14:31:23;22.80;99.90
52034;DHT22;38045;52.988;6.536;2023-07-29T14:33:49;22.70;99.90
52034;DHT22;38045;52.988;6.536;2023-07-29T14:36:15;22.50;99.90
52034;DHT22;38045;52.988;6.536;2023-07-29T14:38:41;22.40;99.90
52034;DHT22;38045;52.988;6.536;2023-07-29T14:41:07;22.30;99.90
52034;DHT22;38045;52.988;6.536;2023-07-29T14:43:34;22.20;99.90
52034;DHT22;38045;52.988;6.536;2023-07-29T14:46:00;22.20;99.90
52034;DHT22;38045;52.988;6.536;2023-07-29T14:48:26;22.30;99.90
52034;DHT22;38045;52.988;6.536;2023-07-29T14:50:51;22.30;99.90
52034;DHT22;38045;52.988;6.536;2023-07-29T14:53:17;22.50;99.90
52034;DHT22;38045;52.988;6.536;2023-07-29T14:55:43;22.70;99.90
52034;DHT22;38045;52.988;6.536;2023-07-29T14:58:09;22.90;99.90
52034;DHT22;38045;52.988;6.536;2023-07-29T15:00:34;23.00;99.90
52034;DHT22;38045;52.988;6.536;2023-07-29T15:03:01;23.00;99.90
52034;DHT22;38045;52.988;6.536;2023-07-29T15:05:26;22.90;99.90
52034;DHT22;38045;52.988;6.536;2023-07-29T15:07:52;22.80;99.90
52034;DHT22;38045;52.988;6.536;2023-07-29T15:10:18;22.70;99.90
52034;DHT22;38045;52.988;6.536;2023-07-29T15:12:44;22.60;99.90
52034;DHT22;38045;52.988;6.536;2023-07-29T15:15:11;22.60;99.90
52034;DHT22;38045;52.988;6.536;2023-07-29T15:17:37;22.60;99.90
52034;DHT22;38045;52.988;6.536;2023-07-29T15:20:03;22.60;99.90
52034;DHT22;38045;52.988;6.536;2023-07-29T15:22:30;22.60;99.90
52034;DHT22;38045;52.988;6.536;2023-07-29T15:24:59;22.80;99.90
52034;DHT22;38045;52.988;6.536;2023-07-29T15:27:27;22.90;99.90
52034;DHT22;38045;52.988;6.536;2023-07-29T15:29:52;22.90;99.90
52034;DHT22;38045;52.988;6.536;2023-07-29T15:32:18;23.00;99.90
52034;DHT22;38045;52.988;6.536;2023-07-29T15:34:44;23.10;99.90
52034;DHT22;38045;52.988;6.536;2023-07-29T15:37:09;23.00;99.90
52034;DHT22;38045;52.988;6.536;2023-07-29T15:39:35;23.00;99.90
52034;DHT22;38045;52.988;6.536;2023-07-29T15:42:00;23.00;99.90